sensor_id;sensor_type;location;lat;lon;timestamp;temperature;humidity
23991;DHT22;12205;50.600;4.608;2023-11-21T00:00:18;10.20;99.90
23991;DHT22;12205;50.600;4.608;2023-11-21T00:02:46;10.20;99.90
23991;DHT22;12205;50.600;4.608;2023-11-21T00:05:14;10.20;99.90
23991;DHT22;12205;50.600;4.608;2023-11-21T00:07:42;10.20;99.90
23991;DHT22;12205;50.600;4.608;2023-11-21T00:10:11;10.20;99.90
23991;DHT22;12205;50.600;4.608;2023-11-21T00:12:41;10.20;99.90
23991;DHT22;12205;50.600;4.608;2023-11-21T00:15:09;10.20;99.90
23991;DHT22;12205;50.600;4.608;2023-11-21T00:17:37;10.20;99.90
23991;DHT22;12205;50.600;4.608;2023-11-21T00:20:06;10.20;99.90
23991;DHT22;12205;50.600;4.608;2023-11-21T00:22:34;10.20;99.90
23991;DHT22;12205;50.600;4.608;2023-11-21T00:25:01;10.20;99.90
23991;DHT22;12205;50.600;4.608;2023-11-21T00:27:32;10.20;99.90
23991;DHT22;12205;50.600;4.608;2023-11-21T00:30:02;10.30;99.90
23991;DHT22;12205;50.600;4.608;2023-11-21T00:32:31;10.30;99.90
23991;DHT22;12205;50.600;4.608;2023-11-21T00:34:58;10.30;99.90
23991;DHT22;12205;50.600;4.608;2023-11-21T00:37:28;10.30;99.90
23991;DHT22;12205;50.600;4.608;2023-11-21T00:39:56;10.30;99.90
23991;DHT22;12205;50.600;4.608;2023-11-21T00:42:24;10.40;99.90
23991;DHT22;12205;50.600;4.608;2023-11-21T00:44:51;10.30;99.90
23991;DHT22;12205;50.600;4.608;2023-11-21T00:47:20;10.40;99.90
23991;DHT22;12205;50.600;4.608;2023-11-21T00:49:48;10.40;99.90
23991;DHT22;12205;50.600;4.608;2023-11-21T00:52:16;10.40;99.90
23991;DHT22;12205;50.600;4.608;2023-11-21T00:54:43;10.40;99.90
23991;DHT22;12205;50.600;4.608;2023-11-21T00:57:10;10.30;99.90
23991;DHT22;12205;50.600;4.608;2023-11-21T00:59:38;10.40;99.90
23991;DHT22;12205;50.600;4.608;2023-11-21T01:02:06;10.30;99.90
23991;DHT22;12205;50.600;4.608;2023-11-21T01:04:37;10.40;99.90
23991;DHT22;12205;50.600;4.608;2023-11-21T01:07:04;10.30;99.90
23991;DHT22;12205;50.600;4.608;2023-11-21T01:09:35;10.30;99.90
23991;DHT22;12205;50.600;4.608;2023-11-21T01:12:03;10.30;99.90
23991;DHT22;12205;50.600;4.608;2023-11-21T01:14:30;10.30;99.90
23991;DHT22;12205;50.600;4.608;2023-11-21T01:16:57;10.40;99.90
23991;DHT22;12205;50.600;4.608;2023-11-21T01:19:25;10.40;99.90
23991;DHT22;12205;50.600;4.608;2023-11-21T01:21:53;10.40;99.90
23991;DHT22;12205;50.600;4.608;2023-11-21T01:24:20;10.40;99.90
23991;DHT22;12205;50.600;4.608;2023-11-21T01:26:48;10.40;99.90
23991;DHT22;12205;50.600;4.608;2023-11-21T01:29:15;10.40;99.90
23991;DHT22;12205;50.600;4.608;2023-11-21T01:31:42;10.50;99.90
23991;DHT22;12205;50.600;4.608;2023-11-21T01:34:09;10.50;99.90
23991;DHT22;12205;50.600;4.608;2023-11-21T01:36:36;10.40;99.90
23991;DHT22;12205;50.600;4.608;2023-11-21T01:39:05;10.50;99.90
23991;DHT22;12205;50.600;4.608;2023-11-21T01:41:34;10.40;99.90
23991;DHT22;12205;50.600;4.608;2023-11-21T01:44:02;10.40;99.90
23991;DHT22;12205;50.600;4.608;2023-11-21T01:46:33;10.40;99.90
23991;DHT22;12205;50.600;4.608;2023-11-21T01:49:00;10.40;99.90
23991;DHT22;12205;50.600;4.608;2023-11-21T01:51:27;10.30;99.90
23991;DHT22;12205;50.600;4.608;2023-11-21T01:53:55;10.30;99.90
23991;DHT22;12205;50.600;4.608;2023-11-21T01:56:23;10.30;99.90
23991;DHT22;12205;50.600;4.608;2023-11-21T01:58:51;10.20;99.90
23991;DHT22;12205;50.600;4.608;2023-11-21T02:01:19;10.20;99.90
23991;DHT22;12205;50.600;4.608;2023-11-21T02:03:46;10.20;99.90
23991;DHT22;12205;50.600;4.608;2023-11-21T02:06:14;10.10;99.90
23991;DHT22;12205;50.600;4.608;2023-11-21T02:08:41;10.00;99.90
23991;DHT22;12205;50.600;4.608;2023-11-21T02:11:11;10.00;99.90
23991;DHT22;12205;50.600;4.608;2023-11-21T02:13:41;10.00;99.90
23991;DHT22;12205;50.600;4.608;2023-11-21T02:16:09;9.90;99.90
23991;DHT22;12205;50.600;4.608;2023-11-21T02:18:38;10.00;99.90
23991;DHT22;12205;50.600;4.608;2023-11-21T02:21:06;9.90;99.90
23991;DHT22;12205;50.600;4.608;2023-11-21T02:23:37;9.90;99.90
23991;DHT22;12205;50.600;4.608;2023-11-21T02:26:07;9.90;99.90
23991;DHT22;12205;50.600;4.608;2023-11-21T02:28:35;9.90;99.90
23991;DHT22;12205;50.600;4.608;2023-11-21T02:31:04;9.90;99.90
23991;DHT22;12205;50.600;4.608;2023-11-21T02:33:33;9.90;99.90
23991;DHT22;12205;50.600;4.608;2023-11-21T02:36:00;9.90;99.90
23991;DHT22;12205;50.600;4.608;2023-11-21T02:38:28;9.90;99.90
23991;DHT22;12205;50.600;4.608;2023-11-21T02:40:57;9.90;99.90
23991;DHT22;12205;50.600;4.608;2023-11-21T02:43:25;10.00;99.90
23991;DHT22;12205;50.600;4.608;2023-11-21T02:45:52;10.00;99.90
23991;DHT22;12205;50.600;4.608;2023-11-21T02:48:19;10.00;99.90
23991;DHT22;12205;50.600;4.608;2023-11-21T02:50:46;10.00;99.90
23991;DHT22;12205;50.600;4.608;2023-11-21T02:53:13;10.00;99.90
23991;DHT22;12205;50.600;4.608;2023-11-21T02:55:41;10.00;99.90
23991;DHT22;12205;50.600;4.608;2023-11-21T02:58:10;10.00;99.90
23991;DHT22;12205;50.600;4.608;2023-11-21T03:00:37;10.00;99.90
23991;DHT22;12205;50.600;4.608;2023-11-21T03:03:07;10.00;99.90
23991;DHT22;12205;50.600;4.608;2023-11-21T03:05:34;10.00;99.90
23991;DHT22;12205;50.600;4.608;2023-11-21T03:08:03;10.00;99.90
23991;DHT22;12205;50.600;4.608;2023-11-21T03:10:31;9.90;99.90
23991;DHT22;12205;50.600;4.608;2023-11-21T03:12:58;10.00;99.90
23991;DHT22;12205;50.600;4.608;2023-11-21T03:15:27;10.00;99.90
23991;DHT22;12205;50.600;4.608;2023-11-21T03:17:54;10.00;99.90
23991;DHT22;12205;50.600;4.608;2023-11-21T03:20:21;10.00;99.90
23991;DHT22;12205;50.600;4.608;2023-11-21T03:22:48;10.00;99.90
23991;DHT22;12205;50.600;4.608;2023-11-21T03:25:15;10.00;99.90
23991;DHT22;12205;50.600;4.608;2023-11-21T03:27:43;10.00;99.90
23991;DHT22;12205;50.600;4.608;2023-11-21T03:30:11;10.00;99.90
23991;DHT22;12205;50.600;4.608;2023-11-21T03:32:40;10.00;99.90
23991;DHT22;12205;50.600;4.608;2023-11-21T03:35:07;10.10;99.90
23991;DHT22;12205;50.600;4.608;2023-11-21T03:37:35;10.10;99.90
23991;DHT22;12205;50.600;4.608;2023-11-21T03:40:04;10.10;99.90
23991;DHT22;12205;50.600;4.608;2023-11-21T03:42:34;10.10;99.90
23991;DHT22;12205;50.600;4.608;2023-11-21T03:45:01;10.10;99.90
23991;DHT22;12205;50.600;4.608;2023-11-21T03:47:29;10.00;99.90
23991;DHT22;12205;50.600;4.608;2023-11-21T03:49:58;10.10;99.90
23991;DHT22;12205;50.600;4.608;2023-11-21T03:52:25;10.10;99.90
23991;DHT22;12205;50.600;4.608;2023-11-21T03:54:52;10.00;99.90
23991;DHT22;12205;50.600;4.608;2023-11-21T03:57:20;10.10;99.90
23991;DHT22;12205;50.600;4.608;2023-11-21T03:59:48;10.00;99.90
23991;DHT22;12205;50.600;4.608;2023-11-21T04:02:15;10.10;99.90
23991;DHT22;12205;50.600;4.608;2023-11-21T04:04:42;10.00;99.90
23991;DHT22;12205;50.600;4.608;2023-11-21T04:07:11;10.00;99.90
23991;DHT22;12205;50.600;4.608;2023-11-21T04:09:39;10.00;99.90
23991;DHT22;12205;50.600;4.608;2023-11-21T04:12:07;10.00;99.90
23991;DHT22;12205;50.600;4.608;2023-11-21T04:14:35;10.00;99.90
23991;DHT22;12205;50.600;4.608;2023-11-21T04:17:02;10.00;99.90
23991;DHT22;12205;50.600;4.608;2023-11-21T04:19:30;10.10;99.90
23991;DHT22;12205;50.600;4.608;2023-11-21T04:21:57;10.10;99.90
23991;DHT22;12205;50.600;4.608;2023-11-21T04:24:26;10.10;99.90
23991;DHT22;12205;50.600;4.608;2023-11-21T04:26:53;10.10;99.90
23991;DHT22;12205;50.600;4.608;2023-11-21T04:29:20;10.20;99.90
23991;DHT22;12205;50.600;4.608;2023-11-21T04:31:48;10.20;99.90
23991;DHT22;12205;50.600;4.608;2023-11-21T04:34:15;10.20;99.90
23991;DHT22;12205;50.600;4.608;2023-11-21T04:36:43;10.20;99.90
23991;DHT22;12205;50.600;4.608;2023-11-21T04:39:10;10.30;99.90
23991;DHT22;12205;50.600;4.608;2023-11-21T04:41:39;10.20;99.90
23991;DHT22;12205;50.600;4.608;2023-11-21T04:44:06;10.20;99.90
23991;DHT22;12205;50.600;4.608;2023-11-21T04:46:33;10.20;99.90
23991;DHT22;12205;50.600;4.608;2023-11-21T04:49:01;10.30;99.90
23991;DHT22;12205;50.600;4.608;2023-11-21T04:51:28;10.30;99.90
23991;DHT22;12205;50.600;4.608;2023-11-21T04:53:55;10.20;99.90
23991;DHT22;12205;50.600;4.608;2023-11-21T04:56:22;10.20;99.90
23991;DHT22;12205;50.600;4.608;2023-11-21T04:58:53;10.20;99.90
23991;DHT22;12205;50.600;4.608;2023-11-21T05:01:20;10.20;99.90
23991;DHT22;12205;50.600;4.608;2023-11-21T05:03:47;10.30;99.90
23991;DHT22;12205;50.600;4.608;2023-11-21T05:06:14;10.30;99.90
23991;DHT22;12205;50.600;4.608;2023-11-21T05:08:41;10.30;99.90
23991;DHT22;12205;50.600;4.608;2023-11-21T05:11:09;10.30;99.90
23991;DHT22;12205;50.600;4.608;2023-11-21T05:13:36;10.30;99.90
23991;DHT22;12205;50.600;4.608;2023-11-21T05:16:06;10.40;99.90
23991;DHT22;12205;50.600;4.608;2023-11-21T05:18:34;10.40;99.90
23991;DHT22;12205;50.600;4.608;2023-11-21T05:21:01;10.40;99.90
23991;DHT22;12205;50.600;4.608;2023-11-21T05:23:29;10.40;99.90
23991;DHT22;12205;50.600;4.608;2023-11-21T05:25:56;10.40;99.90
23991;DHT22;12205;50.600;4.608;2023-11-21T05:28:23;10.40;99.90
23991;DHT22;12205;50.600;4.608;2023-11-21T05:30:50;10.40;99.90
23991;DHT22;12205;50.600;4.608;2023-11-21T05:33:20;10.40;99.90
23991;DHT22;12205;50.600;4.608;2023-11-21T05:35:47;10.40;99.90
23991;DHT22;12205;50.600;4.608;2023-11-21T05:38:14;10.40;99.90
23991;DHT22;12205;50.600;4.608;2023-11-21T05:40:41;10.40;99.90
23991;DHT22;12205;50.600;4.608;2023-11-21T05:43:09;10.40;99.90
23991;DHT22;12205;50.600;4.608;2023-11-21T05:45:37;10.40;99.90
23991;DHT22;12205;50.600;4.608;2023-11-21T05:48:04;10.40;99.90
23991;DHT22;12205;50.600;4.608;2023-11-21T05:50:33;10.40;99.90
23991;DHT22;12205;50.600;4.608;2023-11-21T05:53:00;10.50;99.90
23991;DHT22;12205;50.600;4.608;2023-11-21T05:55:28;10.50;99.90
23991;DHT22;12205;50.600;4.608;2023-11-21T05:57:55;10.50;99.90
23991;DHT22;12205;50.600;4.608;2023-11-21T06:00:22;10.50;99.90
23991;DHT22;12205;50.600;4.608;2023-11-21T06:02:51;10.50;99.90
23991;DHT22;12205;50.600;4.608;2023-11-21T06:05:21;10.50;99.90
23991;DHT22;12205;50.600;4.608;2023-11-21T06:07:51;10.50;99.90
23991;DHT22;12205;50.600;4.608;2023-11-21T06:10:20;10.50;99.90
23991;DHT22;12205;50.600;4.608;2023-11-21T06:12:49;10.60;99.90
23991;DHT22;12205;50.600;4.608;2023-11-21T06:15:16;10.60;99.90
23991;DHT22;12205;50.600;4.608;2023-11-21T06:17:44;10.60;99.90
23991;DHT22;12205;50.600;4.608;2023-11-21T06:20:15;10.60;99.90
23991;DHT22;12205;50.600;4.608;2023-11-21T06:22:45;10.60;99.90
23991;DHT22;12205;50.600;4.608;2023-11-21T06:25:16;10.60;99.90
23991;DHT22;12205;50.600;4.608;2023-11-21T06:27:44;10.60;99.90
23991;DHT22;12205;50.600;4.608;2023-11-21T06:30:14;10.60;99.90
23991;DHT22;12205;50.600;4.608;2023-11-21T06:32:42;10.60;99.90
23991;DHT22;12205;50.600;4.608;2023-11-21T06:35:11;10.60;99.90
23991;DHT22;12205;50.600;4.608;2023-11-21T06:37:39;10.60;99.90
23991;DHT22;12205;50.600;4.608;2023-11-21T06:40:07;10.60;99.90
23991;DHT22;12205;50.600;4.608;2023-11-21T06:42:44;10.60;99.90
23991;DHT22;12205;50.600;4.608;2023-11-21T06:45:12;10.60;99.90
23991;DHT22;12205;50.600;4.608;2023-11-21T06:47:40;10.60;99.90
23991;DHT22;12205;50.600;4.608;2023-11-21T06:50:08;10.60;99.90
23991;DHT22;12205;50.600;4.608;2023-11-21T06:52:36;10.60;99.90
23991;DHT22;12205;50.600;4.608;2023-11-21T06:55:05;10.60;99.90
23991;DHT22;12205;50.600;4.608;2023-11-21T06:57:33;10.60;99.90
23991;DHT22;12205;50.600;4.608;2023-11-21T07:00:03;10.60;99.90
23991;DHT22;12205;50.600;4.608;2023-11-21T07:02:34;10.60;99.90
23991;DHT22;12205;50.600;4.608;2023-11-21T07:05:02;10.60;99.90
23991;DHT22;12205;50.600;4.608;2023-11-21T07:07:29;10.60;99.90
23991;DHT22;12205;50.600;4.608;2023-11-21T07:09:57;10.70;99.90
23991;DHT22;12205;50.600;4.608;2023-11-21T07:12:29;10.60;99.90
23991;DHT22;12205;50.600;4.608;2023-11-21T07:14:56;10.70;99.90
23991;DHT22;12205;50.600;4.608;2023-11-21T07:17:25;10.60;99.90
23991;DHT22;12205;50.600;4.608;2023-11-21T07:19:52;10.50;99.90
23991;DHT22;12205;50.600;4.608;2023-11-21T07:22:20;10.50;99.90
23991;DHT22;12205;50.600;4.608;2023-11-21T07:24:48;10.50;99.90
23991;DHT22;12205;50.600;4.608;2023-11-21T07:27:17;10.50;99.90
23991;DHT22;12205;50.600;4.608;2023-11-21T07:29:45;10.50;99.90
23991;DHT22;12205;50.600;4.608;2023-11-21T07:32:14;10.50;99.90
23991;DHT22;12205;50.600;4.608;2023-11-21T07:34:43;10.50;99.90
23991;DHT22;12205;50.600;4.608;2023-11-21T07:37:10;10.50;99.90
23991;DHT22;12205;50.600;4.608;2023-11-21T07:39:38;10.50;99.90
23991;DHT22;12205;50.600;4.608;2023-11-21T07:42:07;10.60;99.90
23991;DHT22;12205;50.600;4.608;2023-11-21T07:44:42;10.60;99.90
23991;DHT22;12205;50.600;4.608;2023-11-21T07:47:12;10.70;99.90
23991;DHT22;12205;50.600;4.608;2023-11-21T07:49:39;10.70;99.90
23991;DHT22;12205;50.600;4.608;2023-11-21T07:52:10;10.70;99.90
23991;DHT22;12205;50.600;4.608;2023-11-21T07:54:37;10.70;99.90
23991;DHT22;12205;50.600;4.608;2023-11-21T07:57:04;10.70;99.90
23991;DHT22;12205;50.600;4.608;2023-11-21T07:59:31;10.70;99.90
23991;DHT22;12205;50.600;4.608;2023-11-21T08:01:58;10.70;99.90
23991;DHT22;12205;50.600;4.608;2023-11-21T08:04:25;10.70;99.90
23991;DHT22;12205;50.600;4.608;2023-11-21T08:06:53;10.60;99.90
23991;DHT22;12205;50.600;4.608;2023-11-21T08:09:21;10.60;99.90
23991;DHT22;12205;50.600;4.608;2023-11-21T08:11:49;10.70;99.90
23991;DHT22;12205;50.600;4.608;2023-11-21T08:14:17;10.60;99.90
23991;DHT22;12205;50.600;4.608;2023-11-21T08:16:46;10.70;99.90
23991;DHT22;12205;50.600;4.608;2023-11-21T08:19:13;10.70;99.90
23991;DHT22;12205;50.600;4.608;2023-11-21T08:21:42;10.70;99.90
23991;DHT22;12205;50.600;4.608;2023-11-21T08:24:09;10.70;99.90
23991;DHT22;12205;50.600;4.608;2023-11-21T08:26:38;10.80;99.90
23991;DHT22;12205;50.600;4.608;2023-11-21T08:29:06;10.80;99.90
23991;DHT22;12205;50.600;4.608;2023-11-21T08:31:34;10.80;99.90
23991;DHT22;12205;50.600;4.608;2023-11-21T08:34:02;10.70;99.90
23991;DHT22;12205;50.600;4.608;2023-11-21T08:36:41;10.70;99.90
23991;DHT22;12205;50.600;4.608;2023-11-21T08:39:09;10.70;99.90
23991;DHT22;12205;50.600;4.608;2023-11-21T08:41:38;10.70;99.90
23991;DHT22;12205;50.600;4.608;2023-11-21T08:44:06;10.70;99.90
23991;DHT22;12205;50.600;4.608;2023-11-21T08:46:33;10.70;99.90
23991;DHT22;12205;50.600;4.608;2023-11-21T08:49:02;10.80;99.90
23991;DHT22;12205;50.600;4.608;2023-11-21T08:51:30;10.80;99.90
23991;DHT22;12205;50.600;4.608;2023-11-21T08:53:57;10.90;99.90
23991;DHT22;12205;50.600;4.608;2023-11-21T08:56:26;11.00;99.90
23991;DHT22;12205;50.600;4.608;2023-11-21T08:58:55;11.00;99.90
23991;DHT22;12205;50.600;4.608;2023-11-21T09:01:22;11.00;99.90
23991;DHT22;12205;50.600;4.608;2023-11-21T09:03:50;11.00;99.90
23991;DHT22;12205;50.600;4.608;2023-11-21T09:06:17;11.00;99.90
23991;DHT22;12205;50.600;4.608;2023-11-21T09:08:44;11.10;99.90
23991;DHT22;12205;50.600;4.608;2023-11-21T09:11:12;11.00;99.90
23991;DHT22;12205;50.600;4.608;2023-11-21T09:13:39;11.00;99.90
23991;DHT22;12205;50.600;4.608;2023-11-21T09:16:08;11.00;99.90
23991;DHT22;12205;50.600;4.608;2023-11-21T09:18:36;11.10;99.90
23991;DHT22;12205;50.600;4.608;2023-11-21T09:21:04;11.10;99.90
23991;DHT22;12205;50.600;4.608;2023-11-21T09:23:31;11.10;99.90
23991;DHT22;12205;50.600;4.608;2023-11-21T09:25:58;11.20;99.90
23991;DHT22;12205;50.600;4.608;2023-11-21T09:28:26;11.20;99.90
23991;DHT22;12205;50.600;4.608;2023-11-21T09:30:54;11.30;99.90
23991;DHT22;12205;50.600;4.608;2023-11-21T09:33:22;11.30;99.90
23991;DHT22;12205;50.600;4.608;2023-11-21T09:35:50;11.40;99.90
23991;DHT22;12205;50.600;4.608;2023-11-21T09:38:18;11.50;99.90
23991;DHT22;12205;50.600;4.608;2023-11-21T09:40:45;11.60;99.90
23991;DHT22;12205;50.600;4.608;2023-11-21T09:43:16;11.70;99.90
23991;DHT22;12205;50.600;4.608;2023-11-21T09:45:46;11.70;99.90
23991;DHT22;12205;50.600;4.608;2023-11-21T09:48:14;11.70;99.90
23991;DHT22;12205;50.600;4.608;2023-11-21T09:50:44;11.70;99.90
23991;DHT22;12205;50.600;4.608;2023-11-21T09:53:18;11.70;99.90
23991;DHT22;12205;50.600;4.608;2023-11-21T09:55:48;11.80;99.90
23991;DHT22;12205;50.600;4.608;2023-11-21T09:58:18;11.80;99.90
23991;DHT22;12205;50.600;4.608;2023-11-21T10:00:47;11.60;99.90
23991;DHT22;12205;50.600;4.608;2023-11-21T10:03:15;11.60;99.90
23991;DHT22;12205;50.600;4.608;2023-11-21T10:05:45;11.50;99.90
23991;DHT22;12205;50.600;4.608;2023-11-21T10:08:12;11.50;99.90
23991;DHT22;12205;50.600;4.608;2023-11-21T10:10:43;11.50;99.90
23991;DHT22;12205;50.600;4.608;2023-11-21T10:13:12;11.50;99.90
23991;DHT22;12205;50.600;4.608;2023-11-21T10:15:42;11.50;99.90
23991;DHT22;12205;50.600;4.608;2023-11-21T10:18:15;11.50;99.90
23991;DHT22;12205;50.600;4.608;2023-11-21T10:20:44;11.50;99.90
23991;DHT22;12205;50.600;4.608;2023-11-21T10:23:18;11.60;99.90
23991;DHT22;12205;50.600;4.608;2023-11-21T10:25:46;11.60;99.90
23991;DHT22;12205;50.600;4.608;2023-11-21T10:28:14;11.70;99.90
23991;DHT22;12205;50.600;4.608;2023-11-21T10:30:40;11.70;99.90
23991;DHT22;12205;50.600;4.608;2023-11-21T10:33:08;11.80;99.90
23991;DHT22;12205;50.600;4.608;2023-11-21T10:35:43;11.80;99.90
23991;DHT22;12205;50.600;4.608;2023-11-21T10:38:17;11.90;99.90
23991;DHT22;12205;50.600;4.608;2023-11-21T10:40:46;11.90;99.90
23991;DHT22;12205;50.600;4.608;2023-11-21T10:43:14;11.80;99.90
23991;DHT22;12205;50.600;4.608;2023-11-21T10:45:43;11.70;99.90
23991;DHT22;12205;50.600;4.608;2023-11-21T10:48:12;11.50;99.90
23991;DHT22;12205;50.600;4.608;2023-11-21T10:50:44;11.50;99.90
23991;DHT22;12205;50.600;4.608;2023-11-21T10:53:11;11.50;99.90
23991;DHT22;12205;50.600;4.608;2023-11-21T10:55:39;11.60;99.90
23991;DHT22;12205;50.600;4.608;2023-11-21T10:58:06;11.60;99.90
23991;DHT22;12205;50.600;4.608;2023-11-21T11:00:37;11.60;99.90
23991;DHT22;12205;50.600;4.608;2023-11-21T11:03:06;11.60;99.90
23991;DHT22;12205;50.600;4.608;2023-11-21T11:05:41;11.70;99.90
23991;DHT22;12205;50.600;4.608;2023-11-21T11:08:19;11.70;99.90
23991;DHT22;12205;50.600;4.608;2023-11-21T11:10:52;11.70;99.90
23991;DHT22;12205;50.600;4.608;2023-11-21T11:13:19;11.80;99.90
23991;DHT22;12205;50.600;4.608;2023-11-21T11:15:47;11.80;99.90
23991;DHT22;12205;50.600;4.608;2023-11-21T11:18:15;11.80;99.90
23991;DHT22;12205;50.600;4.608;2023-11-21T11:20:45;11.90;99.90
23991;DHT22;12205;50.600;4.608;2023-11-21T11:23:31;11.90;99.90
23991;DHT22;12205;50.600;4.608;2023-11-21T11:26:16;11.90;99.90
23991;DHT22;12205;50.600;4.608;2023-11-21T11:29:00;12.00;99.90
23991;DHT22;12205;50.600;4.608;2023-11-21T11:31:40;12.00;99.90
23991;DHT22;12205;50.600;4.608;2023-11-21T11:34:23;12.00;99.90
23991;DHT22;12205;50.600;4.608;2023-11-21T11:37:08;12.00;99.90
23991;DHT22;12205;50.600;4.608;2023-11-21T11:39:37;12.00;99.90
23991;DHT22;12205;50.600;4.608;2023-11-21T11:42:08;12.00;99.90
23991;DHT22;12205;50.600;4.608;2023-11-21T11:44:50;12.00;99.90
23991;DHT22;12205;50.600;4.608;2023-11-21T11:47:23;12.00;99.90
23991;DHT22;12205;50.600;4.608;2023-11-21T11:50:01;12.00;99.90
23991;DHT22;12205;50.600;4.608;2023-11-21T11:52:35;12.00;99.90
23991;DHT22;12205;50.600;4.608;2023-11-21T11:55:05;12.00;99.90
23991;DHT22;12205;50.600;4.608;2023-11-21T11:57:35;12.10;99.90
23991;DHT22;12205;50.600;4.608;2023-11-21T12:00:11;12.10;99.90
23991;DHT22;12205;50.600;4.608;2023-11-21T12:02:44;12.10;99.90
23991;DHT22;12205;50.600;4.608;2023-11-21T12:05:14;12.10;99.90
23991;DHT22;12205;50.600;4.608;2023-11-21T12:07:47;12.20;99.90
23991;DHT22;12205;50.600;4.608;2023-11-21T12:10:19;12.20;99.90
23991;DHT22;12205;50.600;4.608;2023-11-21T12:12:50;12.20;99.90
23991;DHT22;12205;50.600;4.608;2023-11-21T12:15:19;12.20;99.90
23991;DHT22;12205;50.600;4.608;2023-11-21T12:17:47;12.20;99.90
23991;DHT22;12205;50.600;4.608;2023-11-21T12:20:18;12.20;99.90
23991;DHT22;12205;50.600;4.608;2023-11-21T12:22:48;12.20;99.90
23991;DHT22;12205;50.600;4.608;2023-11-21T12:25:16;12.10;99.90
23991;DHT22;12205;50.600;4.608;2023-11-21T12:27:45;12.10;99.90
23991;DHT22;12205;50.600;4.608;2023-11-21T12:30:16;12.10;99.90
23991;DHT22;12205;50.600;4.608;2023-11-21T12:32:44;12.00;99.90
23991;DHT22;12205;50.600;4.608;2023-11-21T12:35:14;12.00;99.90
23991;DHT22;12205;50.600;4.608;2023-11-21T12:37:46;11.90;99.90
23991;DHT22;12205;50.600;4.608;2023-11-21T12:40:15;12.00;99.90
23991;DHT22;12205;50.600;4.608;2023-11-21T12:42:44;12.00;99.90
23991;DHT22;12205;50.600;4.608;2023-11-21T12:45:21;12.00;99.90
23991;DHT22;12205;50.600;4.608;2023-11-21T12:47:52;12.10;99.90
23991;DHT22;12205;50.600;4.608;2023-11-21T12:50:23;12.10;99.90
23991;DHT22;12205;50.600;4.608;2023-11-21T12:52:59;12.20;99.90
23991;DHT22;12205;50.600;4.608;2023-11-21T12:55:30;12.30;99.90
23991;DHT22;12205;50.600;4.608;2023-11-21T12:58:01;12.40;99.90
23991;DHT22;12205;50.600;4.608;2023-11-21T13:00:35;12.50;99.90
23991;DHT22;12205;50.600;4.608;2023-11-21T13:03:05;12.60;99.90
23991;DHT22;12205;50.600;4.608;2023-11-21T13:05:35;12.70;99.90
23991;DHT22;12205;50.600;4.608;2023-11-21T13:08:07;12.70;99.90
23991;DHT22;12205;50.600;4.608;2023-11-21T13:10:38;12.80;99.90
23991;DHT22;12205;50.600;4.608;2023-11-21T13:13:10;12.80;99.90
23991;DHT22;12205;50.600;4.608;2023-11-21T13:15:47;12.80;99.90
23991;DHT22;12205;50.600;4.608;2023-11-21T13:18:16;12.80;99.90
23991;DHT22;12205;50.600;4.608;2023-11-21T13:20:44;12.80;99.90
23991;DHT22;12205;50.600;4.608;2023-11-21T13:23:13;12.90;99.90
23991;DHT22;12205;50.600;4.608;2023-11-21T13:25:42;12.90;99.90
23991;DHT22;12205;50.600;4.608;2023-11-21T13:28:11;12.90;99.90
23991;DHT22;12205;50.600;4.608;2023-11-21T13:30:41;12.90;99.90
23991;DHT22;12205;50.600;4.608;2023-11-21T13:33:10;12.90;99.90
23991;DHT22;12205;50.600;4.608;2023-11-21T13:35:44;13.00;99.90
23991;DHT22;12205;50.600;4.608;2023-11-21T13:38:16;13.00;99.90
23991;DHT22;12205;50.600;4.608;2023-11-21T13:40:49;13.00;99.90
23991;DHT22;12205;50.600;4.608;2023-11-21T13:43:20;13.10;99.90
23991;DHT22;12205;50.600;4.608;2023-11-21T13:45:50;13.10;99.90
23991;DHT22;12205;50.600;4.608;2023-11-21T13:48:24;13.20;99.90
23991;DHT22;12205;50.600;4.608;2023-11-21T13:51:01;13.20;99.90
23991;DHT22;12205;50.600;4.608;2023-11-21T13:53:40;13.20;99.90
23991;DHT22;12205;50.600;4.608;2023-11-21T13:56:08;13.20;99.90
23991;DHT22;12205;50.600;4.608;2023-11-21T13:58:36;13.20;99.90
23991;DHT22;12205;50.600;4.608;2023-11-21T14:01:10;13.10;99.90
23991;DHT22;12205;50.600;4.608;2023-11-21T14:03:58;13.10;99.90
23991;DHT22;12205;50.600;4.608;2023-11-21T14:06:38;13.00;99.90
23991;DHT22;12205;50.600;4.608;2023-11-21T14:09:14;12.90;99.90
23991;DHT22;12205;50.600;4.608;2023-11-21T14:11:49;12.90;99.90
23991;DHT22;12205;50.600;4.608;2023-11-21T14:14:19;12.80;99.90
23991;DHT22;12205;50.600;4.608;2023-11-21T14:16:46;12.70;99.90
23991;DHT22;12205;50.600;4.608;2023-11-21T14:19:14;12.70;99.90
23991;DHT22;12205;50.600;4.608;2023-11-21T14:21:43;12.60;99.90
23991;DHT22;12205;50.600;4.608;2023-11-21T14:24:10;12.50;99.90
23991;DHT22;12205;50.600;4.608;2023-11-21T14:26:44;12.50;99.90
23991;DHT22;12205;50.600;4.608;2023-11-21T14:29:12;12.40;99.90
23991;DHT22;12205;50.600;4.608;2023-11-21T14:31:41;12.40;99.90
23991;DHT22;12205;50.600;4.608;2023-11-21T14:34:09;12.30;99.90
23991;DHT22;12205;50.600;4.608;2023-11-21T14:36:37;12.30;99.90
23991;DHT22;12205;50.600;4.608;2023-11-21T14:39:06;12.30;99.90
23991;DHT22;12205;50.600;4.608;2023-11-21T14:41:38;12.30;99.90
23991;DHT22;12205;50.600;4.608;2023-11-21T14:44:07;12.30;99.90
23991;DHT22;12205;50.600;4.608;2023-11-21T14:46:37;12.30;99.90
23991;DHT22;12205;50.600;4.608;2023-11-21T14:49:05;12.30;99.90
23991;DHT22;12205;50.600;4.608;2023-11-21T14:51:45;12.30;99.90
23991;DHT22;12205;50.600;4.608;2023-11-21T14:54:29;12.20;99.90
23991;DHT22;12205;50.600;4.608;2023-11-21T14:57:07;12.20;99.90
23991;DHT22;12205;50.600;4.608;2023-11-21T14:59:43;12.10;99.90
23991;DHT22;12205;50.600;4.608;2023-11-21T15:02:13;12.10;99.90
23991;DHT22;12205;50.600;4.608;2023-11-21T15:04:46;12.10;99.90
23991;DHT22;12205;50.600;4.608;2023-11-21T15:07:14;12.00;99.90
23991;DHT22;12205;50.600;4.608;2023-11-21T15:09:40;12.00;99.90
23991;DHT22;12205;50.600;4.608;2023-11-21T15:12:09;12.00;99.90
23991;DHT22;12205;50.600;4.608;2023-11-21T15:14:45;12.00;99.90
23991;DHT22;12205;50.600;4.608;2023-11-21T15:17:15;12.00;99.90
23991;DHT22;12205;50.600;4.608;2023-11-21T15:19:48;11.90;99.90
23991;DHT22;12205;50.600;4.608;2023-11-21T15:22:15;11.90;99.90
23991;DHT22;12205;50.600;4.608;2023-11-21T15:24:43;11.90;99.90
23991;DHT22;12205;50.600;4.608;2023-11-21T15:27:12;11.90;99.90
23991;DHT22;12205;50.600;4.608;2023-11-21T15:29:40;11.90;99.90
23991;DHT22;12205;50.600;4.608;2023-11-21T15:32:09;11.90;99.90
23991;DHT22;12205;50.600;4.608;2023-11-21T15:34:37;11.90;99.90
23991;DHT22;12205;50.600;4.608;2023-11-21T15:37:06;11.90;99.90
23991;DHT22;12205;50.600;4.608;2023-11-21T15:39:37;11.90;99.90
23991;DHT22;12205;50.600;4.608;2023-11-21T15:42:05;11.90;99.90
23991;DHT22;12205;50.600;4.608;2023-11-21T15:44:33;11.90;99.90